createdAt,value
2022-12-11T00:02:12.180Z,100618.56
2022-12-11T00:04:38.964Z,100621.28
2022-12-11T00:07:05.857Z,100643.41
2022-12-11T00:09:32.626Z,100666.31
2022-12-11T00:11:59.330Z,100669.56
2022-12-11T00:14:25.972Z,100619.59
2022-12-11T00:16:52.673Z,100644.41
2022-12-11T00:19:19.714Z,100628.84
2022-12-11T00:21:46.451Z,100631.66
2022-12-11T00:24:13.088Z,100678.19
2022-12-11T00:26:39.997Z,100674.66
2022-12-11T00:29:08.340Z,100656.81
2022-12-11T00:31:35.497Z,100678.41
2022-12-11T00:34:02.862Z,100628.50
2022-12-11T00:36:29.551Z,100618.28
2022-12-11T00:38:56.309Z,100646.50
2022-12-11T00:41:23.057Z,100655.97
2022-12-11T00:43:49.746Z,100655.31
2022-12-11T00:46:16.964Z,100662.50
2022-12-11T00:48:43.670Z,100608.50
2022-12-11T00:51:11.213Z,100655.25
2022-12-11T00:53:38.965Z,100662.75
2022-12-11T00:56:17.786Z,100607.97
2022-12-11T00:58:46.444Z,100614.13
2022-12-11T01:01:16.902Z,100619.09
2022-12-11T01:03:43.901Z,100641.28
2022-12-11T01:06:15.491Z,100646.69
2022-12-11T01:08:43.096Z,100651.69
2022-12-11T01:11:12.797Z,100630.22
2022-12-11T01:13:40.704Z,100650.06
2022-12-11T01:16:16.127Z,100656.06
2022-12-11T01:18:43.025Z,100607.16
2022-12-11T01:21:12.392Z,100652.75
2022-12-11T01:23:40.065Z,100640.09
2022-12-11T01:26:14.898Z,100650.34
2022-12-11T01:28:45.335Z,100630.41
2022-12-11T01:31:13.957Z,100652.91
2022-12-11T01:33:41.139Z,100598.22
2022-12-11T01:36:19.503Z,100627.00
2022-12-11T01:38:48.269Z,100595.66
2022-12-11T01:41:15.832Z,100584.47
2022-12-11T01:44:08.754Z,100653.84
2022-12-11T01:46:36.913Z,100652.06
2022-12-11T01:49:08.099Z,100610.91
2022-12-11T01:51:43.840Z,100637.69
2022-12-11T01:54:13.378Z,100649.03
2022-12-11T01:56:43.851Z,100661.75
2022-12-11T01:59:11.289Z,100649.50
2022-12-11T02:01:45.234Z,100638.44
2022-12-11T02:04:14.321Z,100621.31
2022-12-11T02:06:44.288Z,100607.69
2022-12-11T02:09:33.057Z,100624.84
2022-12-11T02:12:07.272Z,100669.22
2022-12-11T02:14:55.720Z,100671.06
2022-12-11T02:17:26.620Z,100669.41
2022-12-11T02:19:56.235Z,100668.41
2022-12-11T02:22:44.838Z,100671.81
2022-12-11T02:25:23.068Z,100664.97
2022-12-11T02:28:04.819Z,100667.47
2022-12-11T02:30:37.160Z,100657.25
2022-12-11T02:33:03.902Z,100627.97
2022-12-11T02:35:45.593Z,100650.25
2022-12-11T02:38:21.357Z,100661.28
2022-12-11T02:40:51.985Z,100650.28
2022-12-11T02:43:20.319Z,100645.94
2022-12-11T02:45:48.405Z,100645.88
2022-12-11T02:48:17.180Z,100659.84
2022-12-11T02:50:49.201Z,100658.19
2022-12-11T02:53:19.977Z,100631.69
2022-12-11T02:55:50.290Z,100668.31
2022-12-11T02:58:31.107Z,100650.97
2022-12-11T03:00:57.859Z,100639.78
2022-12-11T03:03:25.910Z,100668.44
2022-12-11T03:05:53.500Z,100630.81
2022-12-11T03:08:20.197Z,100652.00
2022-12-11T03:10:46.949Z,100654.63
2022-12-11T03:13:18.737Z,100635.69
2022-12-11T03:15:48.121Z,100665.84
2022-12-11T03:18:36.580Z,100629.75
2022-12-11T03:21:12.250Z,100646.34
2022-12-11T03:23:54.978Z,100641.09
2022-12-11T03:26:23.526Z,100631.94
2022-12-11T03:28:59.079Z,100673.94
2022-12-11T03:31:39.106Z,100650.22
2022-12-11T03:34:16.990Z,100674.22
2022-12-11T03:36:44.728Z,100674.28
2022-12-11T03:39:19.106Z,100654.47
2022-12-11T03:41:48.841Z,100664.78
2022-12-11T03:44:16.874Z,100657.28
2022-12-11T03:46:46.296Z,100642.81
2022-12-11T03:49:20.490Z,100646.03
2022-12-11T03:51:50.385Z,100645.16
2022-12-11T03:54:18.089Z,100628.03
2022-12-11T03:56:46.740Z,100652.09
2022-12-11T03:59:13.557Z,100621.22
2022-12-11T04:01:40.324Z,100639.47
2022-12-11T04:04:07.014Z,100657.28
2022-12-11T04:06:33.745Z,100611.81
2022-12-11T04:09:00.371Z,100612.06
2022-12-11T04:11:36.045Z,100639.34
2022-12-11T04:14:29.681Z,100648.75
2022-12-11T04:16:56.753Z,100651.44
2022-12-11T04:19:42.819Z,100656.72
2022-12-11T04:22:34.288Z,100565.75
2022-12-11T04:25:02.618Z,100616.31
2022-12-11T04:27:48.109Z,100618.97
2022-12-11T04:30:21.660Z,100613.13
2022-12-11T04:32:48.837Z,100633.63
2022-12-11T04:35:16.037Z,100611.22
2022-12-11T04:37:42.954Z,100612.06
2022-12-11T04:40:14.241Z,100618.22
2022-12-11T04:42:41.383Z,100622.56
2022-12-11T04:45:09.638Z,100619.22
2022-12-11T04:47:38.038Z,100605.53
2022-12-11T04:50:07.458Z,100590.91
2022-12-11T04:52:34.270Z,100580.84
2022-12-11T04:55:01.021Z,100619.28
2022-12-11T04:57:28.230Z,100577.25
2022-12-11T04:59:54.873Z,100544.69
2022-12-11T05:02:21.579Z,100617.53
2022-12-11T05:04:48.320Z,100536.16
2022-12-11T05:07:14.985Z,100621.03
2022-12-11T05:09:41.732Z,100611.53
2022-12-11T05:12:08.346Z,100542.88
2022-12-11T05:14:34.988Z,100596.06
2022-12-11T05:17:01.663Z,100549.78
2022-12-11T05:19:28.362Z,100593.59
2022-12-11T05:21:55.017Z,100585.66
2022-12-11T05:24:21.687Z,100588.25
2022-12-11T05:26:48.514Z,100602.81
2022-12-11T05:29:15.156Z,100550.47
2022-12-11T05:31:41.854Z,100545.38
2022-12-11T05:34:08.683Z,100590.72
2022-12-11T05:36:35.587Z,100597.78
2022-12-11T05:39:03.767Z,100594.34
2022-12-11T05:41:32.634Z,100609.84
2022-12-11T05:43:59.848Z,100598.69
2022-12-11T05:46:28.902Z,100607.19
2022-12-11T05:48:59.270Z,100599.41
2022-12-11T05:51:27.445Z,100604.69
2022-12-11T05:53:55.650Z,100529.16
2022-12-11T05:56:28.075Z,100604.59
2022-12-11T05:58:55.956Z,100568.50
2022-12-11T06:01:26.979Z,100609.66
2022-12-11T06:03:54.780Z,100602.00
2022-12-11T06:06:21.561Z,100560.00
2022-12-11T06:08:52.765Z,100577.28
2022-12-11T06:11:23.925Z,100580.66
2022-12-11T06:13:51.704Z,100568.47
2022-12-11T06:16:18.514Z,100572.81
2022-12-11T06:18:46.061Z,100576.16
2022-12-11T06:21:22.630Z,100566.81
2022-12-11T06:23:51.447Z,100567.47
2022-12-11T06:26:19.590Z,100552.09
2022-12-11T06:28:47.058Z,100573.56
2022-12-11T06:31:14.183Z,100566.72
2022-12-11T06:33:43.103Z,100576.97
2022-12-11T06:36:13.460Z,100571.00
2022-12-11T06:38:40.321Z,100537.66
2022-12-11T06:41:08.733Z,100556.50
2022-12-11T06:43:37.137Z,100573.66
2022-12-11T06:46:08.592Z,100573.75
2022-12-11T06:48:35.342Z,100526.56
2022-12-11T06:51:06.967Z,100560.00
2022-12-11T06:53:34.184Z,100529.16
2022-12-11T06:56:13.249Z,100526.59
2022-12-11T06:58:45.401Z,100563.47
2022-12-11T07:01:26.630Z,100551.47
2022-12-11T07:07:02.899Z,100542.75
2022-12-11T07:09:29.582Z,100517.81
2022-12-11T07:11:56.279Z,100521.34
2022-12-11T07:14:23.054Z,100550.41
2022-12-11T07:16:49.942Z,100540.13
2022-12-11T07:19:16.875Z,100535.81
2022-12-11T07:21:43.607Z,100512.59
2022-12-11T07:24:10.426Z,100556.28
2022-12-11T07:26:37.132Z,100565.03
2022-12-11T07:29:03.840Z,100501.56
2022-12-11T07:31:30.936Z,100533.22
2022-12-11T07:34:03.305Z,100498.88
2022-12-11T07:36:34.295Z,100545.19
2022-12-11T07:39:01.560Z,100534.25
2022-12-11T07:41:29.019Z,100570.34
2022-12-11T07:43:56.151Z,100496.56
2022-12-11T07:46:25.358Z,100525.81
2022-12-11T07:48:52.152Z,100476.91
2022-12-11T07:51:18.789Z,100567.72
2022-12-11T07:53:49.775Z,100553.25
2022-12-11T07:56:17.861Z,100548.91
2022-12-11T07:58:45.263Z,100535.31
2022-12-11T08:01:17.855Z,100558.50
2022-12-11T08:03:44.913Z,100548.16
2022-12-11T08:06:11.953Z,100545.66
2022-12-11T08:08:39.451Z,100534.44
2022-12-11T08:11:08.140Z,100524.22
2022-12-11T08:13:34.959Z,100527.72
2022-12-11T08:16:11.023Z,100532.66
2022-12-11T08:18:38.082Z,100519.84
2022-12-11T08:21:10.214Z,100543.06
2022-12-11T08:23:36.995Z,100504.31
2022-12-11T08:26:08.956Z,100535.31
2022-12-11T08:28:35.958Z,100541.34
2022-12-11T08:31:08.268Z,100501.88
2022-12-11T08:33:36.745Z,100466.66
2022-12-11T08:36:08.544Z,100531.75
2022-12-11T08:38:36.151Z,100539.44
2022-12-11T08:41:14.592Z,100523.16
2022-12-11T08:43:42.410Z,100530.09
2022-12-11T08:46:11.692Z,100524.97
2022-12-11T08:48:40.788Z,100513.75
2022-12-11T08:51:12.046Z,100493.19
2022-12-11T08:53:39.876Z,100491.47
2022-12-11T08:56:13.740Z,100532.66
2022-12-11T09:01:27.463Z,100529.25
2022-12-11T09:03:58.073Z,100484.59
2022-12-11T09:33:36.367Z,100369.00
2022-12-11T11:09:06.361Z,100319.25
2022-12-11T11:19:49.645Z,100306.44
2022-12-11T11:22:20.843Z,100475.00
2022-12-11T11:24:55.452Z,100393.44
2022-12-11T11:27:44.375Z,100468.81
2022-12-11T11:30:22.286Z,100412.28
2022-12-11T11:32:52.752Z,100444.75
2022-12-11T11:35:23.644Z,100445.59
2022-12-11T11:38:17.829Z,100429.91
2022-12-11T11:41:04.829Z,100377.91
2022-12-11T11:43:43.511Z,100410.28
2022-12-11T11:46:13.015Z,100423.75
2022-12-11T11:48:46.062Z,100448.56
2022-12-11T11:51:19.660Z,100428.84
2022-12-11T11:53:52.338Z,100447.59
2022-12-11T11:56:46.528Z,100452.91
2022-12-11T11:59:39.377Z,100384.94
2022-12-11T12:02:16.052Z,100400.97
2022-12-11T12:04:44.228Z,100444.78
2022-12-11T12:07:38.205Z,100444.66
2022-12-11T12:10:26.600Z,100435.63
2022-12-11T12:13:49.640Z,100431.53
2022-12-11T12:16:53.571Z,100420.47
2022-12-11T12:19:30.625Z,100424.81
2022-12-11T12:22:02.791Z,100385.38
2022-12-11T12:24:44.957Z,100418.53
2022-12-11T12:27:53.871Z,100407.72
2022-12-11T12:30:23.401Z,100360.66
2022-12-11T12:33:34.232Z,100411.63
2022-12-11T12:36:17.470Z,100338.69
2022-12-11T12:38:47.119Z,100399.94
2022-12-11T12:41:30.880Z,100396.09
2022-12-11T12:44:15.100Z,100399.13
2022-12-11T12:47:05.346Z,100372.41
2022-12-11T12:49:49.619Z,100330.47
2022-12-11T12:52:21.010Z,100370.06
2022-12-11T12:55:11.615Z,100348.03
2022-12-11T12:57:40.604Z,100400.97
2022-12-11T13:00:13.029Z,100331.63
2022-12-11T13:02:51.078Z,100337.78
2022-12-11T13:05:27.771Z,100331.97
2022-12-11T13:08:02.683Z,100362.66
2022-12-11T13:10:35.892Z,100361.47
2022-12-11T13:13:03.569Z,100384.41
2022-12-11T13:15:40.852Z,100387.06
2022-12-11T13:18:35.660Z,100379.94
2022-12-11T13:21:22.970Z,100380.91
2022-12-11T13:23:49.761Z,100357.75
2022-12-11T13:26:29.614Z,100331.31
2022-12-11T13:28:58.285Z,100320.44
2022-12-11T13:31:34.443Z,100367.69
2022-12-11T13:34:15.438Z,100371.31
2022-12-11T13:36:48.878Z,100334.44
2022-12-11T13:39:29.576Z,100373.78
2022-12-11T13:42:02.990Z,100379.19
2022-12-11T13:44:33.670Z,100355.84
2022-12-11T13:47:03.226Z,100374.44
2022-12-11T13:49:39.885Z,100324.06
2022-12-11T13:52:07.649Z,100371.28
2022-12-11T13:54:39.070Z,100317.38
2022-12-11T13:57:08.803Z,100376.16
2022-12-11T13:59:38.026Z,100308.75
2022-12-11T14:02:15.443Z,100329.28
2022-12-11T14:04:42.882Z,100274.63
2022-12-11T14:07:11.039Z,100309.66
2022-12-11T14:09:43.528Z,100367.63
2022-12-11T14:12:20.047Z,100363.66
2022-12-11T14:14:58.664Z,100344.75
2022-12-11T14:17:29.362Z,100307.22
2022-12-11T14:20:00.058Z,100253.38
2022-12-11T14:22:29.342Z,100310.03
2022-12-11T14:24:58.380Z,100361.91
2022-12-11T14:27:26.440Z,100326.81
2022-12-11T14:29:53.863Z,100336.16
2022-12-11T14:32:37.446Z,100344.13
2022-12-11T14:35:11.109Z,100302.28
2022-12-11T14:37:38.110Z,100314.31
2022-12-11T14:40:14.582Z,100324.50
2022-12-11T14:43:08.974Z,100298.94
2022-12-11T14:45:47.010Z,100314.44
2022-12-11T14:48:22.287Z,100352.09
2022-12-11T14:50:53.695Z,100356.38
2022-12-11T14:53:24.895Z,100360.84
2022-12-11T14:55:52.972Z,100354.91
2022-12-11T14:58:26.793Z,100357.38
2022-12-11T15:01:05.452Z,100335.31
2022-12-11T15:03:35.349Z,100339.72
2022-12-11T15:06:04.158Z,100316.81
2022-12-11T15:08:33.445Z,100315.06
2022-12-11T15:11:16.099Z,100284.38
2022-12-11T15:13:59.007Z,100291.91
2022-12-11T15:16:28.320Z,100354.88
2022-12-11T15:18:56.593Z,100295.94
2022-12-11T15:21:32.167Z,100331.97
2022-12-11T15:24:01.570Z,100337.13
2022-12-11T15:26:46.567Z,100284.75
2022-12-11T15:29:38.826Z,100347.91
2022-12-11T15:32:08.632Z,100351.31
2022-12-11T15:34:43.499Z,100339.28
2022-12-11T15:37:28.755Z,100363.69
2022-12-11T15:39:57.392Z,100328.03
2022-12-11T15:42:30.577Z,100343.59
2022-12-11T15:44:57.359Z,100346.78
2022-12-11T15:47:27.142Z,100294.84
2022-12-11T15:50:16.808Z,100299.31
2022-12-11T15:52:44.479Z,100342.00
2022-12-11T15:55:11.835Z,100285.56
2022-12-11T15:57:45.018Z,100334.41
2022-12-11T16:00:16.453Z,100354.97
2022-12-11T16:02:43.354Z,100297.75
2022-12-11T16:05:10.459Z,100295.97
2022-12-11T16:07:37.706Z,100269.56
2022-12-11T16:10:05.617Z,100320.03
2022-12-11T16:12:32.614Z,100316.63
2022-12-11T16:14:59.297Z,100300.38
2022-12-11T16:17:25.986Z,100344.94
2022-12-11T16:19:54.250Z,100287.63
2022-12-11T16:22:20.970Z,100293.63
2022-12-11T16:24:47.734Z,100315.97
2022-12-11T16:27:18.601Z,100317.75
2022-12-11T16:29:51.482Z,100317.72
2022-12-11T16:32:20.703Z,100245.88
2022-12-11T16:34:47.530Z,100343.47
2022-12-11T16:37:17.739Z,100176.59
2022-12-11T16:39:46.115Z,100297.28
2022-12-11T16:42:12.958Z,100305.00
2022-12-11T16:44:43.948Z,100316.19
2022-12-11T16:47:11.012Z,100286.31
2022-12-11T16:49:37.710Z,100347.06
2022-12-11T16:52:07.847Z,100301.72
2022-12-11T16:54:34.773Z,100318.88
2022-12-11T16:57:04.688Z,100271.91
2022-12-11T16:59:37.073Z,100244.59
2022-12-11T17:02:04.298Z,100233.41
2022-12-11T17:04:31.127Z,100279.72
2022-12-11T17:06:57.841Z,100308.75
2022-12-11T17:09:24.819Z,100280.47
2022-12-11T17:11:54.728Z,100320.78
2022-12-11T17:14:24.470Z,100253.97
2022-12-11T17:16:51.276Z,100360.22
2022-12-11T17:19:21.021Z,100299.44
2022-12-11T17:21:51.514Z,100168.44
2022-12-11T17:24:18.842Z,100160.72
2022-12-11T17:26:51.961Z,100273.72
2022-12-11T17:29:19.177Z,100352.47
2022-12-11T17:31:46.747Z,100314.84
2022-12-11T17:34:16.348Z,100299.50
2022-12-11T17:36:43.357Z,100219.91
2022-12-11T17:39:13.979Z,100360.38
2022-12-11T17:41:40.935Z,100230.16
2022-12-11T17:44:11.071Z,100266.13
2022-12-11T17:46:41.150Z,100306.34
2022-12-11T17:49:07.890Z,100230.13
2022-12-11T17:51:35.167Z,100279.81
2022-12-11T17:54:02.015Z,100301.19
2022-12-11T17:56:28.764Z,100260.97
2022-12-11T17:58:55.629Z,100278.09
2022-12-11T18:01:22.619Z,100271.22
2022-12-11T18:03:49.438Z,100312.38
2022-12-11T18:06:19.397Z,100322.69
2022-12-11T18:08:46.398Z,100268.75
2022-12-11T18:11:16.428Z,100364.75
2022-12-11T18:13:46.105Z,100268.75
2022-12-11T18:16:25.753Z,100348.38
2022-12-11T18:18:54.602Z,100292.69
2022-12-11T18:21:27.735Z,100288.41
2022-12-11T18:23:54.418Z,100349.09
2022-12-11T18:26:25.232Z,100349.16
2022-12-11T18:28:53.245Z,100254.06
2022-12-11T18:31:21.270Z,100296.88
2022-12-11T18:33:48.720Z,100308.06
2022-12-11T18:36:18.457Z,100344.06
2022-12-11T18:38:45.338Z,100283.25
2022-12-11T18:41:13.515Z,100260.13
2022-12-11T18:43:41.014Z,100339.78
2022-12-11T18:46:10.003Z,100344.94
2022-12-11T18:48:36.976Z,100321.75
2022-12-11T18:51:11.383Z,100306.47
2022-12-11T18:53:41.389Z,100273.06
2022-12-11T18:56:13.784Z,100339.91
2022-12-11T18:58:40.709Z,100277.34
2022-12-11T19:01:22.720Z,100317.59
2022-12-11T19:03:51.444Z,100331.28
2022-12-11T19:06:21.588Z,100327.03
2022-12-11T19:08:48.435Z,100255.97
2022-12-11T19:11:21.346Z,100304.84
2022-12-11T19:13:49.269Z,100286.00
2022-12-11T19:16:24.846Z,100258.50
2022-12-11T19:18:52.427Z,100305.63
2022-12-11T19:21:19.171Z,100280.78
2022-12-11T19:23:46.593Z,100294.47
2022-12-11T19:26:16.302Z,100315.09
2022-12-11T19:28:43.303Z,100245.75
2022-12-11T19:31:12.613Z,100314.28
2022-12-11T19:33:40.528Z,100319.41
2022-12-11T19:36:12.344Z,100317.75
2022-12-11T19:38:41.009Z,100295.41
2022-12-11T19:41:09.867Z,100337.44
2022-12-11T19:43:36.901Z,100294.63
2022-12-11T19:46:05.555Z,100304.09
2022-12-11T19:48:32.646Z,100319.47
2022-12-11T19:51:07.136Z,100340.06
2022-12-11T19:53:34.508Z,100318.63
2022-12-11T19:56:01.501Z,100280.03
2022-12-11T19:58:28.386Z,100306.63
2022-12-11T20:00:55.126Z,100292.03
2022-12-11T20:03:22.119Z,100317.75
2022-12-11T20:05:49.184Z,100300.59
2022-12-11T20:08:42.873Z,100310.91
2022-12-11T20:11:09.602Z,100311.75
2022-12-11T20:13:41.077Z,100321.22
2022-12-11T20:16:09.333Z,100296.34
2022-12-11T20:18:37.082Z,100319.50
2022-12-11T20:21:10.157Z,100331.47
2022-12-11T20:23:36.753Z,100330.56
2022-12-11T20:26:08.004Z,100326.31
2022-12-11T20:28:35.344Z,100323.78
2022-12-11T20:31:07.513Z,100337.47
2022-12-11T20:33:34.551Z,100275.75
2022-12-11T20:36:01.330Z,100321.22
2022-12-11T20:38:34.085Z,100345.25
2022-12-11T20:41:01.081Z,100326.28
2022-12-11T20:43:27.820Z,100274.94
2022-12-11T20:45:54.505Z,100283.53
2022-12-11T20:48:21.181Z,100306.63
2022-12-11T20:50:47.891Z,100284.38
2022-12-11T20:53:14.786Z,100309.28
2022-12-11T20:55:42.555Z,100336.69
2022-12-11T20:58:09.525Z,100267.25
2022-12-11T21:00:40.342Z,100336.69
2022-12-11T21:03:07.056Z,100286.16
2022-12-11T21:05:33.775Z,100306.72
2022-12-11T21:08:00.532Z,100329.00
2022-12-11T21:10:27.213Z,100304.13
2022-12-11T21:12:53.969Z,100363.31
2022-12-11T21:15:20.614Z,100317.88
2022-12-11T21:17:47.501Z,100309.31
2022-12-11T21:20:14.390Z,100330.72
2022-12-11T21:22:41.082Z,100306.72
2022-12-11T21:25:08.085Z,100317.88
2022-12-11T21:27:34.860Z,100348.75
2022-12-11T21:30:01.769Z,100335.03
2022-12-11T21:32:30.120Z,100308.44
2022-12-11T21:34:58.680Z,100347.06
2022-12-11T21:37:25.536Z,100323.03
2022-12-11T21:39:56.235Z,100360.75
2022-12-11T21:42:23.648Z,100329.03
2022-12-11T21:45:37.490Z,100347.03
2022-12-11T21:47:36.976Z,100356.47
2022-12-11T21:50:04.488Z,100344.47
2022-12-11T21:52:31.175Z,100335.88
2022-12-11T21:54:57.887Z,100329.88
2022-12-11T21:57:26.706Z,100350.47
2022-12-11T21:59:53.694Z,100332.47
2022-12-11T22:02:20.430Z,100311.88
2022-12-11T22:04:47.602Z,100314.47
2022-12-11T22:07:15.542Z,100359.03
2022-12-11T22:09:43.057Z,100344.44
2022-12-11T22:12:29.890Z,100360.78
2022-12-11T22:14:57.090Z,100344.47
2022-12-11T22:17:24.163Z,100336.75
2022-12-11T22:19:52.073Z,100333.31
2022-12-11T22:22:19.476Z,100360.75
2022-12-11T22:24:46.296Z,100357.34
2022-12-11T22:27:13.073Z,100361.63
2022-12-11T22:29:39.860Z,100356.47
2022-12-11T22:32:06.566Z,100373.66
2022-12-11T22:34:33.192Z,100373.66
2022-12-11T22:36:59.827Z,100352.19
2022-12-11T22:39:26.463Z,100374.50
2022-12-11T22:41:53.265Z,100367.63
2022-12-11T22:44:21.688Z,100371.06
2022-12-11T22:46:50.561Z,100334.16
2022-12-11T22:49:19.617Z,100354.75
2022-12-11T22:51:46.381Z,100340.97
2022-12-11T22:54:13.201Z,100346.16
2022-12-11T22:56:39.910Z,100338.44
2022-12-11T22:59:07.703Z,100360.72
2022-12-11T23:01:34.660Z,100348.72
2022-12-11T23:04:01.326Z,100376.19
2022-12-11T23:06:28.095Z,100356.44
2022-12-11T23:08:58.734Z,100372.72
2022-12-11T23:11:31.772Z,100362.44
2022-12-11T23:13:58.908Z,100393.34
2022-12-11T23:16:26.624Z,100391.63
2022-12-11T23:18:54.795Z,100348.69
2022-12-11T23:21:21.970Z,100346.97
2022-12-11T23:23:49.480Z,100322.09
2022-12-11T23:26:18.812Z,100359.91
2022-12-11T23:28:46.159Z,100323.84
2022-12-11T23:31:13.752Z,100370.19
2022-12-11T23:33:40.716Z,100328.16
2022-12-11T23:36:08.099Z,100299.81
2022-12-11T23:38:35.094Z,100384.75
2022-12-11T23:41:04.345Z,100359.03
2022-12-11T23:43:31.429Z,100322.09
2022-12-11T23:45:58.197Z,100365.81
2022-12-11T23:48:24.952Z,100358.13
2022-12-11T23:50:52.001Z,100394.16
2022-12-11T23:53:18.723Z,100316.88
2022-12-11T23:55:45.877Z,100366.53
2022-12-11T23:58:12.973Z,100390.59
